Airfield :
LOGIN :

Register | Disclaimer

   EN    FR    IT 

 










Legend :    VFR   Marginal VFR   IFR   Intensive IFR   Very Intensive IFR
Visi :
Ceiling :
>= 8 km
>= 3000ft
5 to 8 km
1000 to 3000 ft
1500m to 5 km
500 to 1000 ft
800 to 1500m
200 to 500 ft
< 800m
< 200 ft
Symbols :   Thunderstorms  Fog  Heavy snow  Heavy precipitations  Wind > 20 kt
SIGMETs :     Misc.  Thunderstorms  Icing  Turbulence  Mountain Waves  Volcanic Ashes






- Airport Elevation : 610 ft
- IATA code : VXO


ESMX - Växjö Kronoberg

CURRENT METAR :
  • 141120Z 19007KT 9999 SCT030 BKN041 16/08 Q1014

EXPIRED METARs :
  • 141050Z 17008KT 9999 SCT031 BKN053 15/09 Q1014
  • 141020Z 21008KT 9999 SCT028 15/08 Q1014
  • 140950Z 22009KT 9999 FEW028 SCT038 14/09 Q1014
  • 140920Z 22009KT 9999 SCT024 BKN044 14/09 Q1014
  • 140850Z 18007KT 9999 BKN024 13/08 Q1014
  • 140820Z 18008KT 9999 BKN022 13/09 Q1014
  • 140750Z 36009KT 9999 BKN023 13/08 Q1014
  • 140720Z 36008KT 9999 SCT020 13/09 Q1014
  • 140650Z 36005KT 9999 SCT014 12/09 Q1014

TAF TAF ESMX
Valid from the 14 at 09:00 until the 14 at 18:00 UTC


140830Z 1409/1418 18005KT 9999 BKN025
PROB40 1409/1418 RA BKN020CB



MET'MAP, your aeronautical weather chart ! - Copyright ORBIFLY December 2007 - Disclaimer

ORBIFLY MET'MAP TEAM :

Programming & Development : Alexandra Zaïnal
Original concept : Baudouin d'Aumeries
Technical & hardware support : Manuel Goepfert
Assistance : Marc-Olivier Méhu




SOURCES & CREDITS :

   NOAA